sensor_id;sensor_type;location;lat;lon;timestamp;P1;durP1;ratioP1;P2;durP2;ratioP2
62256;SDS011;48240;52.962;5.790;2023-06-24T03:53:02;3.58;;;3.28;;
62256;SDS011;48240;52.962;5.790;2023-06-24T03:55:28;3.97;;;3.40;;
62256;SDS011;48240;52.962;5.790;2023-06-24T03:57:54;4.10;;;3.70;;
62256;SDS011;48240;52.962;5.790;2023-06-24T04:00:20;4.10;;;3.08;;
62256;SDS011;48240;52.962;5.790;2023-06-24T04:02:47;5.20;;;3.47;;
62256;SDS011;48240;52.962;5.790;2023-06-24T04:05:13;6.38;;;3.47;;
62256;SDS011;48240;52.962;5.790;2023-06-24T04:07:39;4.30;;;3.65;;
62256;SDS011;48240;52.962;5.790;2023-06-24T04:10:05;3.50;;;3.20;;
62256;SDS011;48240;52.962;5.790;2023-06-24T04:12:35;3.53;;;3.22;;
62256;SDS011;48240;52.962;5.790;2023-06-24T04:15:02;4.13;;;3.72;;
62256;SDS011;48240;52.962;5.790;2023-06-24T04:17:29;3.72;;;3.40;;
62256;SDS011;48240;52.962;5.790;2023-06-24T04:19:55;4.85;;;3.30;;
62256;SDS011;48240;52.962;5.790;2023-06-24T04:22:21;4.40;;;3.60;;
62256;SDS011;48240;52.962;5.790;2023-06-24T04:24:47;4.05;;;3.30;;
62256;SDS011;48240;52.962;5.790;2023-06-24T04:27:13;4.30;;;3.30;;
62256;SDS011;48240;52.962;5.790;2023-06-24T04:29:39;3.58;;;3.28;;
62256;SDS011;48240;52.962;5.790;2023-06-24T04:32:06;4.70;;;3.38;;
62256;SDS011;48240;52.962;5.790;2023-06-24T04:34:32;4.25;;;3.65;;
62256;SDS011;48240;52.962;5.790;2023-06-24T04:36:58;4.28;;;3.88;;
62256;SDS011;48240;52.962;5.790;2023-06-24T04:39:24;3.90;;;3.50;;
62256;SDS011;48240;52.962;5.790;2023-06-24T04:41:50;3.50;;;3.10;;
62256;SDS011;48240;52.962;5.790;2023-06-24T04:44:16;5.45;;;4.15;;
62256;SDS011;48240;52.962;5.790;2023-06-24T04:46:42;4.70;;;4.10;;
62256;SDS011;48240;52.962;5.790;2023-06-24T04:49:08;5.47;;;4.05;;
62256;SDS011;48240;52.962;5.790;2023-06-24T04:51:35;4.45;;;4.05;;
62256;SDS011;48240;52.962;5.790;2023-06-24T04:54:01;4.32;;;3.80;;
62256;SDS011;48240;52.962;5.790;2023-06-24T04:56:28;4.53;;;4.13;;
62256;SDS011;48240;52.962;5.790;2023-06-24T04:58:54;6.75;;;4.35;;
62256;SDS011;48240;52.962;5.790;2023-06-24T05:01:21;4.68;;;4.00;;
62256;SDS011;48240;52.962;5.790;2023-06-24T05:03:47;4.30;;;3.90;;
62256;SDS011;48240;52.962;5.790;2023-06-24T05:06:13;4.88;;;4.18;;
62256;SDS011;48240;52.962;5.790;2023-06-24T05:08:39;4.50;;;3.83;;
62256;SDS011;48240;52.962;5.790;2023-06-24T05:11:05;5.85;;;4.03;;
62256;SDS011;48240;52.962;5.790;2023-06-24T05:13:31;4.65;;;3.97;;
62256;SDS011;48240;52.962;5.790;2023-06-24T05:15:58;7.85;;;3.95;;
62256;SDS011;48240;52.962;5.790;2023-06-24T05:18:24;5.50;;;4.60;;
62256;SDS011;48240;52.962;5.790;2023-06-24T05:20:50;4.82;;;4.00;;
62256;SDS011;48240;52.962;5.790;2023-06-24T05:23:16;4.85;;;4.00;;
62256;SDS011;48240;52.962;5.790;2023-06-24T05:25:42;5.45;;;4.03;;
62256;SDS011;48240;52.962;5.790;2023-06-24T05:28:08;4.72;;;4.22;;
62256;SDS011;48240;52.962;5.790;2023-06-24T05:30:34;5.07;;;4.28;;
62256;SDS011;48240;52.962;5.790;2023-06-24T05:33:00;4.68;;;4.13;;
62256;SDS011;48240;52.962;5.790;2023-06-24T05:35:26;4.80;;;4.10;;
62256;SDS011;48240;52.962;5.790;2023-06-24T05:37:53;5.45;;;4.07;;
62256;SDS011;48240;52.962;5.790;2023-06-24T05:40:19;4.43;;;4.03;;
62256;SDS011;48240;52.962;5.790;2023-06-24T05:42:45;6.53;;;4.30;;
62256;SDS011;48240;52.962;5.790;2023-06-24T05:45:11;5.18;;;3.78;;
62256;SDS011;48240;52.962;5.790;2023-06-24T05:47:37;12.18;;;8.82;;
62256;SDS011;48240;52.962;5.790;2023-06-24T05:50:04;12.60;;;9.23;;
62256;SDS011;48240;52.962;5.790;2023-06-24T05:52:30;13.98;;;9.70;;
62256;SDS011;48240;52.962;5.790;2023-06-24T05:54:56;13.52;;;9.38;;
62256;SDS011;48240;52.962;5.790;2023-06-24T05:57:22;15.40;;;10.20;;
62256;SDS011;48240;52.962;5.790;2023-06-24T05:59:48;12.85;;;10.50;;
62256;SDS011;48240;52.962;5.790;2023-06-24T06:02:14;13.23;;;9.68;;
62256;SDS011;48240;52.962;5.790;2023-06-24T06:04:40;13.40;;;10.27;;
62256;SDS011;48240;52.962;5.790;2023-06-24T06:07:06;15.43;;;10.85;;
62256;SDS011;48240;52.962;5.790;2023-06-24T06:09:33;15.05;;;10.25;;
62256;SDS011;48240;52.962;5.790;2023-06-24T06:11:59;15.13;;;10.18;;
62256;SDS011;48240;52.962;5.790;2023-06-24T06:14:25;13.30;;;9.60;;
62256;SDS011;48240;52.962;5.790;2023-06-24T06:16:51;16.30;;;9.68;;
62256;SDS011;48240;52.962;5.790;2023-06-24T06:19:17;14.50;;;10.23;;
62256;SDS011;48240;52.962;5.790;2023-06-24T06:21:43;14.23;;;10.00;;
62256;SDS011;48240;52.962;5.790;2023-06-24T06:24:09;16.50;;;10.25;;
62256;SDS011;48240;52.962;5.790;2023-06-24T06:26:40;15.73;;;10.88;;
62256;SDS011;48240;52.962;5.790;2023-06-24T06:29:06;14.10;;;10.43;;
62256;SDS011;48240;52.962;5.790;2023-06-24T06:31:32;13.25;;;9.48;;
62256;SDS011;48240;52.962;5.790;2023-06-24T06:33:58;15.23;;;9.35;;
62256;SDS011;48240;52.962;5.790;2023-06-24T06:36:24;14.27;;;9.80;;
62256;SDS011;48240;52.962;5.790;2023-06-24T06:38:50;14.80;;;9.43;;
62256;SDS011;48240;52.962;5.790;2023-06-24T06:41:16;14.18;;;8.95;;
62256;SDS011;48240;52.962;5.790;2023-06-24T06:43:49;17.45;;;10.20;;
62256;SDS011;48240;52.962;5.790;2023-06-24T06:46:15;17.85;;;9.88;;
62256;SDS011;48240;52.962;5.790;2023-06-24T06:48:41;13.60;;;8.73;;
62256;SDS011;48240;52.962;5.790;2023-06-24T06:51:07;14.23;;;9.52;;
62256;SDS011;48240;52.962;5.790;2023-06-24T06:53:33;14.63;;;9.35;;
62256;SDS011;48240;52.962;5.790;2023-06-24T06:55:59;14.02;;;8.77;;
62256;SDS011;48240;52.962;5.790;2023-06-24T06:58:25;15.57;;;9.10;;
62256;SDS011;48240;52.962;5.790;2023-06-24T07:00:51;13.95;;;9.10;;
62256;SDS011;48240;52.962;5.790;2023-06-24T07:03:17;14.90;;;8.55;;
62256;SDS011;48240;52.962;5.790;2023-06-24T07:05:43;10.43;;;7.57;;
62256;SDS011;48240;52.962;5.790;2023-06-24T07:08:09;9.30;;;6.53;;
62256;SDS011;48240;52.962;5.790;2023-06-24T07:10:35;8.95;;;5.57;;
62256;SDS011;48240;52.962;5.790;2023-06-24T07:13:01;7.40;;;4.53;;
62256;SDS011;48240;52.962;5.790;2023-06-24T07:15:28;6.25;;;4.20;;
62256;SDS011;48240;52.962;5.790;2023-06-24T07:17:54;6.40;;;3.75;;
62256;SDS011;48240;52.962;5.790;2023-06-24T07:20:20;5.85;;;3.33;;
62256;SDS011;48240;52.962;5.790;2023-06-24T07:22:47;4.90;;;3.13;;
62256;SDS011;48240;52.962;5.790;2023-06-24T07:25:13;5.55;;;3.30;;
62256;SDS011;48240;52.962;5.790;2023-06-24T07:27:39;3.63;;;2.90;;
62256;SDS011;48240;52.962;5.790;2023-06-24T07:30:05;5.40;;;3.20;;
62256;SDS011;48240;52.962;5.790;2023-06-24T07:32:31;3.80;;;2.90;;
62256;SDS011;48240;52.962;5.790;2023-06-24T07:34:57;6.07;;;3.70;;
62256;SDS011;48240;52.962;5.790;2023-06-24T07:37:23;7.25;;;4.18;;
62256;SDS011;48240;52.962;5.790;2023-06-24T07:39:50;6.82;;;3.30;;
62256;SDS011;48240;52.962;5.790;2023-06-24T07:42:16;5.30;;;3.40;;
62256;SDS011;48240;52.962;5.790;2023-06-24T07:44:46;4.40;;;2.80;;
62256;SDS011;48240;52.962;5.790;2023-06-24T07:47:13;4.22;;;2.70;;
62256;SDS011;48240;52.962;5.790;2023-06-24T07:49:39;6.10;;;2.88;;
62256;SDS011;48240;52.962;5.790;2023-06-24T07:52:05;4.60;;;3.00;;
62256;SDS011;48240;52.962;5.790;2023-06-24T07:54:32;5.18;;;3.10;;
62256;SDS011;48240;52.962;5.790;2023-06-24T07:56:58;4.72;;;2.67;;
62256;SDS011;48240;52.962;5.790;2023-06-24T07:59:24;5.70;;;3.20;;
62256;SDS011;48240;52.962;5.790;2023-06-24T08:01:50;5.38;;;3.10;;
62256;SDS011;48240;52.962;5.790;2023-06-24T08:04:16;3.95;;;2.80;;
62256;SDS011;48240;52.962;5.790;2023-06-24T08:06:42;4.40;;;3.10;;
62256;SDS011;48240;52.962;5.790;2023-06-24T08:09:09;4.75;;;2.72;;
62256;SDS011;48240;52.962;5.790;2023-06-24T08:11:35;7.38;;;2.70;;
62256;SDS011;48240;52.962;5.790;2023-06-24T08:14:01;8.85;;;2.88;;
62256;SDS011;48240;52.962;5.790;2023-06-24T08:16:27;5.25;;;2.50;;
62256;SDS011;48240;52.962;5.790;2023-06-24T08:18:53;7.80;;;3.00;;
62256;SDS011;48240;52.962;5.790;2023-06-24T08:21:19;3.88;;;2.45;;
62256;SDS011;48240;52.962;5.790;2023-06-24T08:23:46;4.07;;;2.80;;
62256;SDS011;48240;52.962;5.790;2023-06-24T08:26:13;6.30;;;3.08;;
62256;SDS011;48240;52.962;5.790;2023-06-24T08:28:39;5.70;;;3.22;;
62256;SDS011;48240;52.962;5.790;2023-06-24T08:31:05;4.80;;;2.75;;
62256;SDS011;48240;52.962;5.790;2023-06-24T08:33:31;4.15;;;2.80;;
62256;SDS011;48240;52.962;5.790;2023-06-24T08:35:57;4.85;;;3.05;;
62256;SDS011;48240;52.962;5.790;2023-06-24T08:38:23;5.20;;;2.85;;
62256;SDS011;48240;52.962;5.790;2023-06-24T08:40:49;4.38;;;2.70;;
62256;SDS011;48240;52.962;5.790;2023-06-24T08:43:16;4.00;;;2.60;;
62256;SDS011;48240;52.962;5.790;2023-06-24T08:45:42;8.27;;;3.10;;
62256;SDS011;48240;52.962;5.790;2023-06-24T08:48:08;7.30;;;3.10;;
62256;SDS011;48240;52.962;5.790;2023-06-24T08:50:40;5.55;;;3.22;;
62256;SDS011;48240;52.962;5.790;2023-06-24T08:53:07;5.30;;;3.08;;
62256;SDS011;48240;52.962;5.790;2023-06-24T08:55:35;6.90;;;3.17;;
62256;SDS011;48240;52.962;5.790;2023-06-24T08:58:02;9.23;;;3.30;;
62256;SDS011;48240;52.962;5.790;2023-06-24T09:00:28;5.70;;;3.17;;
62256;SDS011;48240;52.962;5.790;2023-06-24T09:02:55;7.03;;;3.30;;
62256;SDS011;48240;52.962;5.790;2023-06-24T09:05:21;5.47;;;3.30;;
62256;SDS011;48240;52.962;5.790;2023-06-24T09:07:47;6.20;;;3.17;;
62256;SDS011;48240;52.962;5.790;2023-06-24T09:10:29;7.28;;;3.30;;
62256;SDS011;48240;52.962;5.790;2023-06-24T09:12:56;6.85;;;3.25;;
62256;SDS011;48240;52.962;5.790;2023-06-24T09:15:22;5.78;;;3.45;;
62256;SDS011;48240;52.962;5.790;2023-06-24T09:17:48;6.38;;;3.50;;
62256;SDS011;48240;52.962;5.790;2023-06-24T09:20:14;5.10;;;3.25;;
62256;SDS011;48240;52.962;5.790;2023-06-24T09:22:45;7.57;;;3.60;;
62256;SDS011;48240;52.962;5.790;2023-06-24T09:25:16;6.22;;;3.28;;
62256;SDS011;48240;52.962;5.790;2023-06-24T09:27:46;8.05;;;3.38;;
62256;SDS011;48240;52.962;5.790;2023-06-24T09:30:17;7.50;;;3.30;;
62256;SDS011;48240;52.962;5.790;2023-06-24T09:32:47;5.68;;;3.25;;
62256;SDS011;48240;52.962;5.790;2023-06-24T09:35:13;4.95;;;3.33;;
62256;SDS011;48240;52.962;5.790;2023-06-24T09:37:40;6.95;;;3.67;;
62256;SDS011;48240;52.962;5.790;2023-06-24T09:40:06;8.10;;;3.55;;
62256;SDS011;48240;52.962;5.790;2023-06-24T09:42:34;7.50;;;3.67;;
62256;SDS011;48240;52.962;5.790;2023-06-24T09:45:04;8.73;;;3.35;;
62256;SDS011;48240;52.962;5.790;2023-06-24T09:47:31;5.22;;;3.38;;
62256;SDS011;48240;52.962;5.790;2023-06-24T09:49:57;6.45;;;3.20;;
62256;SDS011;48240;52.962;5.790;2023-06-24T09:52:23;7.25;;;3.47;;
62256;SDS011;48240;52.962;5.790;2023-06-24T09:54:51;6.55;;;3.30;;
62256;SDS011;48240;52.962;5.790;2023-06-24T09:57:25;8.50;;;3.47;;
62256;SDS011;48240;52.962;5.790;2023-06-24T09:59:52;7.28;;;3.53;;
62256;SDS011;48240;52.962;5.790;2023-06-24T10:02:19;6.25;;;3.38;;
62256;SDS011;48240;52.962;5.790;2023-06-24T10:04:45;5.35;;;3.65;;
62256;SDS011;48240;52.962;5.790;2023-06-24T10:07:12;5.55;;;3.60;;
62256;SDS011;48240;52.962;5.790;2023-06-24T10:09:39;5.85;;;3.35;;
62256;SDS011;48240;52.962;5.790;2023-06-24T10:12:06;6.07;;;3.50;;
62256;SDS011;48240;52.962;5.790;2023-06-24T10:14:32;7.65;;;3.35;;
62256;SDS011;48240;52.962;5.790;2023-06-24T10:17:02;5.38;;;3.55;;
62256;SDS011;48240;52.962;5.790;2023-06-24T10:19:29;5.00;;;3.53;;
62256;SDS011;48240;52.962;5.790;2023-06-24T10:21:58;5.57;;;3.15;;
62256;SDS011;48240;52.962;5.790;2023-06-24T10:24:28;5.60;;;3.45;;
62256;SDS011;48240;52.962;5.790;2023-06-24T10:26:55;8.32;;;3.17;;
62256;SDS011;48240;52.962;5.790;2023-06-24T10:29:34;6.28;;;3.50;;
62256;SDS011;48240;52.962;5.790;2023-06-24T10:32:02;5.00;;;3.33;;
62256;SDS011;48240;52.962;5.790;2023-06-24T10:34:38;9.15;;;3.42;;
62256;SDS011;48240;52.962;5.790;2023-06-24T10:37:10;4.93;;;3.53;;
62256;SDS011;48240;52.962;5.790;2023-06-24T10:44:47;5.72;;;3.65;;
62256;SDS011;48240;52.962;5.790;2023-06-24T10:47:13;6.03;;;4.00;;
62256;SDS011;48240;52.962;5.790;2023-06-24T10:49:39;7.75;;;3.92;;
62256;SDS011;48240;52.962;5.790;2023-06-24T10:52:11;6.25;;;4.20;;
62256;SDS011;48240;52.962;5.790;2023-06-24T10:54:38;8.93;;;4.40;;
62256;SDS011;48240;52.962;5.790;2023-06-24T10:57:05;7.60;;;4.05;;
62256;SDS011;48240;52.962;5.790;2023-06-24T10:59:34;4.50;;;3.58;;
62256;SDS011;48240;52.962;5.790;2023-06-24T11:02:00;7.63;;;3.97;;
62256;SDS011;48240;52.962;5.790;2023-06-24T11:04:26;5.38;;;3.65;;
62256;SDS011;48240;52.962;5.790;2023-06-24T11:06:59;5.07;;;3.83;;
62256;SDS011;48240;52.962;5.790;2023-06-24T11:09:25;4.97;;;3.97;;
62256;SDS011;48240;52.962;5.790;2023-06-24T11:11:51;6.53;;;3.90;;
62256;SDS011;48240;52.962;5.790;2023-06-24T11:14:19;6.03;;;3.85;;
62256;SDS011;48240;52.962;5.790;2023-06-24T11:16:45;4.30;;;3.33;;
62256;SDS011;48240;52.962;5.790;2023-06-24T11:19:12;5.90;;;3.88;;
62256;SDS011;48240;52.962;5.790;2023-06-24T11:21:39;6.30;;;3.65;;
62256;SDS011;48240;52.962;5.790;2023-06-24T11:24:05;6.07;;;3.60;;
62256;SDS011;48240;52.962;5.790;2023-06-24T11:26:32;5.85;;;3.80;;
62256;SDS011;48240;52.962;5.790;2023-06-24T11:28:58;7.50;;;3.70;;
62256;SDS011;48240;52.962;5.790;2023-06-24T11:31:27;6.28;;;4.03;;
62256;SDS011;48240;52.962;5.790;2023-06-24T11:33:53;6.07;;;3.95;;
62256;SDS011;48240;52.962;5.790;2023-06-24T11:36:20;6.80;;;4.10;;
62256;SDS011;48240;52.962;5.790;2023-06-24T11:38:46;7.95;;;3.88;;
62256;SDS011;48240;52.962;5.790;2023-06-24T11:41:13;5.55;;;3.88;;
62256;SDS011;48240;52.962;5.790;2023-06-24T11:43:45;7.00;;;3.60;;
62256;SDS011;48240;52.962;5.790;2023-06-24T11:46:21;5.57;;;3.10;;
62256;SDS011;48240;52.962;5.790;2023-06-24T11:48:47;4.82;;;3.70;;
62256;SDS011;48240;52.962;5.790;2023-06-24T11:51:13;5.15;;;3.75;;
62256;SDS011;48240;52.962;5.790;2023-06-24T11:53:43;4.18;;;3.28;;
62256;SDS011;48240;52.962;5.790;2023-06-24T11:56:10;5.85;;;3.70;;
62256;SDS011;48240;52.962;5.790;2023-06-24T11:58:36;5.72;;;3.67;;
62256;SDS011;48240;52.962;5.790;2023-06-24T12:01:02;4.47;;;3.45;;
62256;SDS011;48240;52.962;5.790;2023-06-24T12:03:29;4.93;;;3.50;;
62256;SDS011;48240;52.962;5.790;2023-06-24T12:05:57;4.40;;;2.95;;
62256;SDS011;48240;52.962;5.790;2023-06-24T12:08:23;5.22;;;3.47;;
62256;SDS011;48240;52.962;5.790;2023-06-24T12:10:50;6.05;;;3.65;;
62256;SDS011;48240;52.962;5.790;2023-06-24T12:13:16;7.75;;;3.50;;
62256;SDS011;48240;52.962;5.790;2023-06-24T12:15:42;5.93;;;3.63;;
62256;SDS011;48240;52.962;5.790;2023-06-24T12:18:08;5.15;;;3.13;;
62256;SDS011;48240;52.962;5.790;2023-06-24T12:20:35;4.28;;;3.40;;
62256;SDS011;48240;52.962;5.790;2023-06-24T12:23:02;8.38;;;3.65;;
62256;SDS011;48240;52.962;5.790;2023-06-24T12:25:31;4.10;;;3.30;;
62256;SDS011;48240;52.962;5.790;2023-06-24T12:27:57;7.53;;;3.70;;
62256;SDS011;48240;52.962;5.790;2023-06-24T12:30:26;5.88;;;3.72;;
62256;SDS011;48240;52.962;5.790;2023-06-24T12:32:52;7.50;;;3.42;;
62256;SDS011;48240;52.962;5.790;2023-06-24T12:35:19;6.57;;;3.40;;
62256;SDS011;48240;52.962;5.790;2023-06-24T12:37:45;6.53;;;3.65;;
62256;SDS011;48240;52.962;5.790;2023-06-24T12:40:11;6.05;;;3.70;;
62256;SDS011;48240;52.962;5.790;2023-06-24T12:42:37;6.72;;;3.70;;
62256;SDS011;48240;52.962;5.790;2023-06-24T12:45:03;6.82;;;4.30;;
62256;SDS011;48240;52.962;5.790;2023-06-24T12:47:29;5.28;;;3.75;;
62256;SDS011;48240;52.962;5.790;2023-06-24T12:49:55;4.93;;;3.90;;
62256;SDS011;48240;52.962;5.790;2023-06-24T12:52:21;5.50;;;3.50;;
62256;SDS011;48240;52.962;5.790;2023-06-24T12:54:47;4.60;;;3.47;;
62256;SDS011;48240;52.962;5.790;2023-06-24T12:57:14;5.68;;;3.40;;
62256;SDS011;48240;52.962;5.790;2023-06-24T12:59:41;5.22;;;3.70;;
62256;SDS011;48240;52.962;5.790;2023-06-24T13:02:07;5.47;;;3.60;;
62256;SDS011;48240;52.962;5.790;2023-06-24T13:04:33;5.22;;;3.42;;
62256;SDS011;48240;52.962;5.790;2023-06-24T13:06:59;6.15;;;3.80;;
62256;SDS011;48240;52.962;5.790;2023-06-24T13:09:25;5.55;;;3.70;;
62256;SDS011;48240;52.962;5.790;2023-06-24T13:11:51;5.53;;;3.60;;
62256;SDS011;48240;52.962;5.790;2023-06-24T13:14:17;5.03;;;3.50;;
62256;SDS011;48240;52.962;5.790;2023-06-24T13:16:44;5.25;;;3.38;;
62256;SDS011;48240;52.962;5.790;2023-06-24T13:19:10;6.90;;;3.28;;
62256;SDS011;48240;52.962;5.790;2023-06-24T13:21:36;5.05;;;3.17;;
62256;SDS011;48240;52.962;5.790;2023-06-24T13:24:02;6.13;;;3.65;;
62256;SDS011;48240;52.962;5.790;2023-06-24T13:26:28;5.35;;;3.40;;
62256;SDS011;48240;52.962;5.790;2023-06-24T13:28:54;6.75;;;3.70;;
62256;SDS011;48240;52.962;5.790;2023-06-24T13:31:20;6.38;;;3.72;;
62256;SDS011;48240;52.962;5.790;2023-06-24T13:33:46;7.10;;;3.42;;
62256;SDS011;48240;52.962;5.790;2023-06-24T13:36:34;5.30;;;3.55;;
62256;SDS011;48240;52.962;5.790;2023-06-24T13:39:00;6.57;;;3.90;;
62256;SDS011;48240;52.962;5.790;2023-06-24T13:41:27;7.47;;;3.65;;
62256;SDS011;48240;52.962;5.790;2023-06-24T13:43:56;8.63;;;4.18;;
62256;SDS011;48240;52.962;5.790;2023-06-24T13:46:22;3.58;;;3.03;;
62256;SDS011;48240;52.962;5.790;2023-06-24T13:48:48;5.53;;;3.40;;
62256;SDS011;48240;52.962;5.790;2023-06-24T13:51:15;4.55;;;3.65;;
62256;SDS011;48240;52.962;5.790;2023-06-24T13:53:41;6.30;;;3.78;;
62256;SDS011;48240;52.962;5.790;2023-06-24T13:56:07;5.65;;;3.70;;
62256;SDS011;48240;52.962;5.790;2023-06-24T13:58:33;5.22;;;3.60;;
62256;SDS011;48240;52.962;5.790;2023-06-24T14:00:59;7.20;;;3.70;;
62256;SDS011;48240;52.962;5.790;2023-06-24T14:03:25;6.47;;;3.50;;
62256;SDS011;48240;52.962;5.790;2023-06-24T14:05:52;4.75;;;3.30;;
62256;SDS011;48240;52.962;5.790;2023-06-24T14:08:18;5.05;;;3.30;;
62256;SDS011;48240;52.962;5.790;2023-06-24T14:10:44;4.72;;;3.47;;
62256;SDS011;48240;52.962;5.790;2023-06-24T14:13:10;6.50;;;3.50;;
62256;SDS011;48240;52.962;5.790;2023-06-24T14:15:36;4.82;;;3.40;;
62256;SDS011;48240;52.962;5.790;2023-06-24T14:18:02;5.00;;;3.38;;
62256;SDS011;48240;52.962;5.790;2023-06-24T14:20:28;4.55;;;3.30;;
62256;SDS011;48240;52.962;5.790;2023-06-24T14:22:54;11.75;;;3.78;;
62256;SDS011;48240;52.962;5.790;2023-06-24T14:25:20;6.32;;;3.67;;
62256;SDS011;48240;52.962;5.790;2023-06-24T14:27:47;5.70;;;3.35;;
62256;SDS011;48240;52.962;5.790;2023-06-24T14:30:14;5.85;;;3.85;;
62256;SDS011;48240;52.962;5.790;2023-06-24T14:32:40;5.65;;;3.50;;
62256;SDS011;48240;52.962;5.790;2023-06-24T14:35:06;5.82;;;3.40;;
62256;SDS011;48240;52.962;5.790;2023-06-24T14:37:32;4.53;;;3.38;;
62256;SDS011;48240;52.962;5.790;2023-06-24T14:39:58;5.00;;;3.40;;
62256;SDS011;48240;52.962;5.790;2023-06-24T14:42:24;6.30;;;3.50;;
62256;SDS011;48240;52.962;5.790;2023-06-24T14:44:51;4.65;;;3.70;;
62256;SDS011;48240;52.962;5.790;2023-06-24T14:47:17;7.55;;;3.50;;
62256;SDS011;48240;52.962;5.790;2023-06-24T14:49:43;7.22;;;3.85;;
62256;SDS011;48240;52.962;5.790;2023-06-24T14:52:09;5.43;;;3.70;;
62256;SDS011;48240;52.962;5.790;2023-06-24T14:54:35;5.35;;;3.40;;
62256;SDS011;48240;52.962;5.790;2023-06-24T14:57:01;7.70;;;3.90;;
62256;SDS011;48240;52.962;5.790;2023-06-24T14:59:27;6.47;;;3.30;;
62256;SDS011;48240;52.962;5.790;2023-06-24T15:01:53;7.38;;;3.38;;
62256;SDS011;48240;52.962;5.790;2023-06-24T15:04:19;6.28;;;3.63;;
62256;SDS011;48240;52.962;5.790;2023-06-24T15:06:45;4.93;;;3.60;;
62256;SDS011;48240;52.962;5.790;2023-06-24T15:09:11;7.25;;;3.80;;
62256;SDS011;48240;52.962;5.790;2023-06-24T15:11:38;5.28;;;3.17;;
62256;SDS011;48240;52.962;5.790;2023-06-24T15:14:04;5.13;;;3.60;;
62256;SDS011;48240;52.962;5.790;2023-06-24T15:16:30;5.60;;;3.38;;
62256;SDS011;48240;52.962;5.790;2023-06-24T15:18:56;7.03;;;3.58;;
62256;SDS011;48240;52.962;5.790;2023-06-24T15:21:22;4.30;;;3.30;;
62256;SDS011;48240;52.962;5.790;2023-06-24T15:23:48;5.43;;;3.20;;
62256;SDS011;48240;52.962;5.790;2023-06-24T15:26:14;4.50;;;3.30;;
62256;SDS011;48240;52.962;5.790;2023-06-24T15:28:40;6.88;;;3.80;;
62256;SDS011;48240;52.962;5.790;2023-06-24T15:31:06;5.82;;;3.50;;
62256;SDS011;48240;52.962;5.790;2023-06-24T15:33:32;7.40;;;3.58;;
62256;SDS011;48240;52.962;5.790;2023-06-24T15:35:58;5.93;;;3.47;;
62256;SDS011;48240;52.962;5.790;2023-06-24T15:38:25;4.40;;;3.40;;
62256;SDS011;48240;52.962;5.790;2023-06-24T15:40:51;7.35;;;3.40;;
62256;SDS011;48240;52.962;5.790;2023-06-24T15:43:17;6.65;;;3.42;;
62256;SDS011;48240;52.962;5.790;2023-06-24T15:45:43;6.45;;;3.60;;
62256;SDS011;48240;52.962;5.790;2023-06-24T15:48:09;8.02;;;3.28;;
62256;SDS011;48240;52.962;5.790;2023-06-24T15:50:35;4.55;;;3.47;;
62256;SDS011;48240;52.962;5.790;2023-06-24T15:53:01;4.30;;;3.08;;
62256;SDS011;48240;52.962;5.790;2023-06-24T15:55:28;4.90;;;3.50;;
62256;SDS011;48240;52.962;5.790;2023-06-24T15:57:54;5.95;;;3.78;;
62256;SDS011;48240;52.962;5.790;2023-06-24T16:00:20;5.28;;;3.60;;
62256;SDS011;48240;52.962;5.790;2023-06-24T16:02:46;6.80;;;3.63;;
62256;SDS011;48240;52.962;5.790;2023-06-24T16:05:12;4.60;;;3.40;;
62256;SDS011;48240;52.962;5.790;2023-06-24T16:07:38;7.60;;;3.55;;
62256;SDS011;48240;52.962;5.790;2023-06-24T16:10:04;4.43;;;3.40;;
62256;SDS011;48240;52.962;5.790;2023-06-24T16:12:31;4.72;;;3.25;;
62256;SDS011;48240;52.962;5.790;2023-06-24T16:14:57;5.95;;;3.30;;
62256;SDS011;48240;52.962;5.790;2023-06-24T16:17:23;6.53;;;3.63;;
62256;SDS011;48240;52.962;5.790;2023-06-24T16:19:49;4.32;;;3.20;;
62256;SDS011;48240;52.962;5.790;2023-06-24T16:22:15;7.72;;;3.38;;
62256;SDS011;48240;52.962;5.790;2023-06-24T16:24:41;5.45;;;3.20;;
62256;SDS011;48240;52.962;5.790;2023-06-24T16:27:07;5.55;;;3.30;;
62256;SDS011;48240;52.962;5.790;2023-06-24T16:29:33;4.40;;;3.17;;
62256;SDS011;48240;52.962;5.790;2023-06-24T16:31:59;8.18;;;3.83;;
62256;SDS011;48240;52.962;5.790;2023-06-24T16:34:26;6.72;;;3.67;;
62256;SDS011;48240;52.962;5.790;2023-06-24T16:36:52;8.07;;;3.80;;
62256;SDS011;48240;52.962;5.790;2023-06-24T16:39:19;6.53;;;3.38;;
62256;SDS011;48240;52.962;5.790;2023-06-24T16:41:45;10.02;;;3.53;;
62256;SDS011;48240;52.962;5.790;2023-06-24T16:44:11;12.13;;;3.72;;
62256;SDS011;48240;52.962;5.790;2023-06-24T16:46:37;10.50;;;4.00;;
62256;SDS011;48240;52.962;5.790;2023-06-24T16:49:03;8.23;;;4.03;;
62256;SDS011;48240;52.962;5.790;2023-06-24T16:51:34;9.43;;;3.97;;
62256;SDS011;48240;52.962;5.790;2023-06-24T16:54:01;8.60;;;4.00;;
62256;SDS011;48240;52.962;5.790;2023-06-24T16:56:27;8.85;;;4.25;;
62256;SDS011;48240;52.962;5.790;2023-06-24T16:58:53;9.70;;;3.92;;
62256;SDS011;48240;52.962;5.790;2023-06-24T17:01:19;9.63;;;3.60;;
62256;SDS011;48240;52.962;5.790;2023-06-24T17:03:45;5.85;;;3.65;;
62256;SDS011;48240;52.962;5.790;2023-06-24T17:06:11;7.13;;;4.05;;
62256;SDS011;48240;52.962;5.790;2023-06-24T17:08:37;6.40;;;3.53;;
62256;SDS011;48240;52.962;5.790;2023-06-24T17:11:04;6.45;;;3.63;;
62256;SDS011;48240;52.962;5.790;2023-06-24T17:13:30;5.18;;;3.40;;
62256;SDS011;48240;52.962;5.790;2023-06-24T17:15:56;7.00;;;3.25;;
62256;SDS011;48240;52.962;5.790;2023-06-24T17:18:22;5.10;;;3.60;;
62256;SDS011;48240;52.962;5.790;2023-06-24T17:20:48;4.35;;;3.50;;
62256;SDS011;48240;52.962;5.790;2023-06-24T17:23:14;5.38;;;3.45;;
62256;SDS011;48240;52.962;5.790;2023-06-24T17:25:40;5.15;;;3.38;;
62256;SDS011;48240;52.962;5.790;2023-06-24T17:28:06;4.32;;;3.25;;
62256;SDS011;48240;52.962;5.790;2023-06-24T17:30:32;4.85;;;3.42;;
62256;SDS011;48240;52.962;5.790;2023-06-24T17:32:58;5.60;;;3.40;;
62256;SDS011;48240;52.962;5.790;2023-06-24T17:35:24;6.05;;;3.90;;
62256;SDS011;48240;52.962;5.790;2023-06-24T17:37:50;5.57;;;3.33;;
62256;SDS011;48240;52.962;5.790;2023-06-24T17:40:17;4.95;;;3.40;;
62256;SDS011;48240;52.962;5.790;2023-06-24T17:42:43;6.07;;;3.42;;
62256;SDS011;48240;52.962;5.790;2023-06-24T17:45:09;4.68;;;3.40;;
62256;SDS011;48240;52.962;5.790;2023-06-24T17:47:36;6.45;;;3.25;;
62256;SDS011;48240;52.962;5.790;2023-06-24T17:50:02;3.47;;;3.13;;
62256;SDS011;48240;52.962;5.790;2023-06-24T17:52:28;4.88;;;3.40;;
62256;SDS011;48240;52.962;5.790;2023-06-24T17:54:55;5.90;;;3.53;;
62256;SDS011;48240;52.962;5.790;2023-06-24T17:57:21;10.60;;;3.40;;
62256;SDS011;48240;52.962;5.790;2023-06-24T17:59:47;4.07;;;2.95;;
62256;SDS011;48240;52.962;5.790;2023-06-24T18:02:13;6.22;;;3.22;;
62256;SDS011;48240;52.962;5.790;2023-06-24T18:04:39;6.72;;;3.70;;
62256;SDS011;48240;52.962;5.790;2023-06-24T18:07:05;4.82;;;3.38;;
62256;SDS011;48240;52.962;5.790;2023-06-24T18:09:32;6.72;;;3.50;;
62256;SDS011;48240;52.962;5.790;2023-06-24T18:11:58;7.07;;;3.38;;
62256;SDS011;48240;52.962;5.790;2023-06-24T18:14:24;5.43;;;3.72;;
62256;SDS011;48240;52.962;5.790;2023-06-24T18:16:50;4.43;;;3.00;;
62256;SDS011;48240;52.962;5.790;2023-06-24T18:19:18;7.50;;;3.83;;
62256;SDS011;48240;52.962;5.790;2023-06-24T18:21:44;3.75;;;3.38;;
62256;SDS011;48240;52.962;5.790;2023-06-24T18:24:10;4.85;;;3.30;;
62256;SDS011;48240;52.962;5.790;2023-06-24T18:26:37;6.80;;;3.55;;
62256;SDS011;48240;52.962;5.790;2023-06-24T18:29:06;4.75;;;3.10;;
62256;SDS011;48240;52.962;5.790;2023-06-24T18:31:32;4.63;;;3.40;;
62256;SDS011;48240;52.962;5.790;2023-06-24T18:33:58;5.88;;;3.03;;
62256;SDS011;48240;52.962;5.790;2023-06-24T18:36:24;8.52;;;3.55;;
62256;SDS011;48240;52.962;5.790;2023-06-24T18:38:50;5.53;;;3.40;;